createdAt,value
2019-05-20T00:00:51.176Z,9.60
2019-05-20T00:03:37.957Z,9.33
2019-05-20T00:06:24.779Z,9.30
2019-05-20T00:09:11.092Z,9.00
2019-05-20T00:11:58.043Z,9.30
2019-05-20T00:14:46.277Z,9.33
2019-05-20T00:17:33.490Z,9.73
2019-05-20T00:20:21.487Z,9.37
2019-05-20T00:23:08.351Z,9.23
2019-05-20T00:25:54.972Z,9.47
2019-05-20T00:28:41.401Z,9.10
2019-05-20T00:31:27.833Z,9.30
2019-05-20T00:34:14.003Z,9.50
2019-05-20T00:37:00.623Z,9.30
2019-05-20T00:39:46.951Z,9.20
2019-05-20T00:42:33.231Z,9.10
2019-05-20T00:45:19.766Z,9.60
2019-05-20T00:48:06.043Z,9.70
2019-05-20T00:50:52.301Z,9.50
2019-05-20T00:53:38.669Z,9.63
2019-05-20T00:56:25.059Z,9.60
2019-05-20T00:59:11.360Z,9.30
2019-05-20T01:01:58.348Z,9.30
2019-05-20T01:04:44.599Z,9.33
2019-05-20T01:07:30.897Z,9.20
2019-05-20T01:10:17.503Z,9.13
2019-05-20T01:13:04.124Z,9.23
2019-05-20T01:15:50.735Z,9.10
2019-05-20T01:18:37.286Z,9.40
2019-05-20T01:21:23.742Z,9.27
2019-05-20T01:24:10.127Z,9.50
2019-05-20T01:26:56.423Z,9.23
2019-05-20T01:29:42.911Z,9.80
2019-05-20T01:32:29.433Z,9.30
2019-05-20T01:35:15.933Z,9.40
2019-05-20T01:38:02.338Z,9.30
2019-05-20T01:40:48.722Z,9.63
2019-05-20T01:43:35.032Z,9.57
2019-05-20T01:46:21.251Z,9.60
2019-05-20T01:49:07.684Z,9.80
2019-05-20T01:51:54.128Z,9.40
2019-05-20T01:54:40.811Z,9.70
2019-05-20T01:57:27.096Z,9.43
2019-05-20T02:00:15.071Z,9.30
2019-05-20T02:03:01.764Z,9.50
2019-05-20T02:05:48.133Z,9.30
2019-05-20T02:08:34.431Z,9.23
2019-05-20T02:11:20.810Z,9.50
2019-05-20T02:14:11.584Z,9.90
2019-05-20T02:16:58.180Z,9.33
2019-05-20T02:19:44.462Z,10.00
2019-05-20T02:22:30.789Z,9.63
2019-05-20T02:25:17.725Z,9.47
2019-05-20T02:28:04.005Z,9.37
2019-05-20T02:30:50.403Z,9.57
2019-05-20T02:33:51.125Z,9.37
2019-05-20T02:36:25.167Z,9.43
2019-05-20T02:39:11.517Z,9.80
2019-05-20T02:41:57.838Z,9.67
2019-05-20T02:44:44.052Z,9.53
2019-05-20T02:47:30.457Z,9.50
2019-05-20T02:50:17.485Z,9.10
2019-05-20T02:53:04.205Z,9.40
2019-05-20T02:55:50.527Z,9.60
2019-05-20T02:58:37.470Z,9.67
2019-05-20T03:01:23.846Z,9.37
2019-05-20T03:04:12.639Z,9.60
2019-05-20T03:06:58.702Z,10.03
2019-05-20T03:09:45.430Z,9.77
2019-05-20T03:12:31.763Z,9.70
2019-05-20T03:15:18.748Z,9.70
2019-05-20T03:18:05.049Z,9.67
2019-05-20T03:20:51.837Z,9.47
2019-05-20T03:23:38.361Z,9.60
2019-05-20T03:26:25.082Z,9.50
2019-05-20T03:29:11.482Z,9.17
2019-05-20T03:31:58.319Z,9.30
2019-05-20T03:34:51.285Z,9.47
2019-05-20T03:37:33.023Z,9.70
2019-05-20T03:40:19.504Z,9.70
2019-05-20T03:43:06.245Z,9.40
2019-05-20T03:45:52.534Z,9.50
2019-05-20T03:48:38.947Z,9.40
2019-05-20T03:51:25.311Z,9.67
2019-05-20T03:54:11.742Z,9.60
2019-05-20T03:56:58.154Z,9.27
2019-05-20T03:59:44.602Z,10.00
2019-05-20T04:02:31.287Z,9.47
2019-05-20T04:05:17.721Z,9.70
2019-05-20T04:08:04.045Z,9.60
2019-05-20T04:10:50.385Z,9.90
2019-05-20T04:13:37.590Z,9.47
2019-05-20T04:16:24.362Z,9.40
2019-05-20T04:19:10.731Z,9.83
2019-05-20T04:21:57.795Z,9.70
2019-05-20T04:24:44.245Z,9.77
2019-05-20T04:27:31.095Z,9.57
2019-05-20T04:30:19.190Z,9.43
2019-05-20T04:33:05.776Z,9.63
2019-05-20T04:35:52.655Z,10.00
2019-05-20T04:38:39.138Z,9.90
2019-05-20T04:41:25.867Z,9.80
2019-05-20T04:44:13.746Z,9.80
2019-05-20T04:47:00.131Z,9.30
2019-05-20T04:49:47.971Z,9.67
2019-05-20T04:52:34.473Z,9.53
2019-05-20T04:55:21.234Z,10.00
2019-05-20T04:58:08.130Z,9.70
2019-05-20T05:00:57.412Z,9.70
2019-05-20T05:03:44.077Z,9.47
2019-05-20T05:06:31.012Z,9.37
2019-05-20T05:09:17.421Z,10.40
2019-05-20T05:12:04.351Z,10.00
2019-05-20T05:14:51.085Z,9.73
2019-05-20T05:17:37.968Z,9.73
2019-05-20T05:20:24.379Z,9.57
2019-05-20T05:23:10.983Z,9.83
2019-05-20T05:25:57.931Z,9.80
2019-05-20T05:28:46.802Z,9.77
2019-05-20T05:31:33.190Z,9.87
2019-05-20T05:34:20.202Z,9.70
2019-05-20T05:37:06.993Z,9.60
2019-05-20T05:39:54.032Z,9.30
2019-05-20T05:42:41.084Z,9.37
2019-05-20T05:45:32.254Z,10.13
2019-05-20T05:48:18.769Z,9.90
2019-05-20T05:51:05.794Z,10.07
2019-05-20T05:53:53.382Z,9.97
2019-05-20T05:56:40.133Z,9.70
2019-05-20T05:59:26.407Z,10.17
2019-05-20T06:02:13.149Z,9.60
2019-05-20T06:05:01.038Z,9.70
2019-05-20T06:07:47.732Z,9.70
2019-05-20T06:10:35.822Z,9.50
2019-05-20T06:13:23.747Z,9.80
2019-05-20T06:16:10.692Z,9.40
2019-05-20T06:18:57.646Z,10.30
2019-05-20T06:21:44.637Z,9.83
2019-05-20T06:24:31.616Z,9.87
2019-05-20T06:27:18.401Z,9.63
2019-05-20T06:30:06.438Z,10.00
2019-05-20T06:32:53.288Z,9.60
2019-05-20T06:35:40.079Z,9.50
2019-05-20T06:38:46.041Z,9.57
2019-05-20T06:41:32.657Z,9.60
2019-05-20T06:44:19.462Z,9.80
2019-05-20T06:47:06.342Z,9.70
2019-05-20T06:49:55.016Z,9.60
2019-05-20T06:52:44.243Z,9.97
2019-05-20T06:55:33.284Z,9.73
2019-05-20T06:58:20.163Z,9.90
2019-05-20T07:01:07.098Z,9.40
2019-05-20T07:03:54.088Z,9.90
2019-05-20T07:06:46.675Z,9.80
2019-05-20T07:09:29.858Z,9.50
2019-05-20T07:12:16.429Z,9.60
2019-05-20T07:15:10.002Z,9.80
2019-05-20T07:17:53.679Z,9.40
2019-05-20T07:20:41.481Z,10.13
2019-05-20T07:23:29.497Z,9.60
2019-05-20T07:26:16.570Z,9.70
2019-05-20T07:29:03.301Z,9.70
2019-05-20T07:31:50.484Z,9.90
2019-05-20T07:34:37.246Z,9.60
2019-05-20T07:37:24.178Z,9.80
2019-05-20T07:40:11.430Z,9.63
2019-05-20T07:42:58.563Z,9.93
2019-05-20T07:45:45.913Z,9.70
2019-05-20T07:48:33.491Z,9.50
2019-05-20T07:51:21.125Z,9.70
2019-05-20T07:54:08.410Z,9.57
2019-05-20T07:57:00.396Z,9.43
2019-05-20T07:59:50.074Z,9.93
2019-05-20T08:02:37.599Z,9.40
2019-05-20T08:05:24.309Z,10.10
2019-05-20T08:08:11.339Z,9.47
2019-05-20T08:10:58.059Z,9.60
2019-05-20T08:13:45.033Z,9.33
2019-05-20T08:16:32.258Z,10.07
2019-05-20T08:19:20.659Z,9.73
2019-05-20T08:22:07.279Z,9.60
2019-05-20T08:24:54.465Z,9.57
2019-05-20T08:27:41.266Z,10.00
2019-05-20T08:30:36.403Z,9.30
2019-05-20T08:33:25.322Z,9.57
2019-05-20T08:36:12.046Z,9.20
2019-05-20T08:38:59.162Z,9.97
2019-05-20T08:41:46.028Z,9.70
2019-05-20T08:44:34.189Z,9.83
2019-05-20T08:47:20.921Z,9.27
2019-05-20T08:50:13.224Z,9.80
2019-05-20T08:52:57.202Z,9.40
2019-05-20T08:55:45.934Z,9.70
2019-05-20T08:58:32.901Z,9.13
2019-05-20T09:01:20.983Z,9.90
2019-05-20T09:04:08.797Z,9.90
2019-05-20T09:06:55.443Z,9.80
2019-05-20T09:09:42.649Z,9.80
2019-05-20T09:12:29.439Z,9.80
2019-05-20T09:15:16.974Z,10.10
2019-05-20T09:18:03.628Z,9.60
2019-05-20T09:20:50.420Z,9.70
2019-05-20T09:23:37.429Z,9.50
2019-05-20T09:26:25.319Z,9.43
2019-05-20T09:29:13.413Z,9.63
2019-05-20T09:32:00.013Z,9.47
2019-05-20T09:34:47.672Z,9.70
2019-05-20T09:37:34.596Z,9.90
2019-05-20T09:40:43.399Z,9.60
2019-05-20T09:43:31.681Z,9.60
2019-05-20T09:46:19.734Z,9.70
2019-05-20T09:49:06.569Z,9.80
2019-05-20T09:51:53.498Z,9.17
2019-05-20T09:54:40.356Z,9.23
2019-05-20T09:57:29.047Z,10.00
2019-05-20T10:00:16.576Z,9.43
2019-05-20T10:03:04.043Z,9.27
2019-05-20T10:06:08.681Z,9.70
2019-05-20T10:08:57.306Z,9.20
2019-05-20T10:11:44.200Z,9.43
2019-05-20T10:14:32.296Z,9.03
2019-05-20T10:17:18.914Z,9.60
2019-05-20T10:20:06.528Z,9.50
2019-05-20T10:22:56.680Z,9.80
2019-05-20T10:25:43.650Z,10.03
2019-05-20T10:28:30.475Z,9.40
2019-05-20T10:31:17.202Z,9.60
2019-05-20T10:34:06.538Z,9.60
2019-05-20T10:36:53.593Z,10.00
2019-05-20T10:39:41.901Z,9.53
2019-05-20T10:42:28.559Z,9.70
2019-05-20T10:45:16.055Z,9.77
2019-05-20T10:48:02.876Z,10.17
2019-05-20T10:50:49.747Z,10.23
2019-05-20T10:53:36.743Z,9.90
2019-05-20T10:56:24.685Z,9.70
2019-05-20T10:59:12.340Z,9.80
2019-05-20T11:01:59.271Z,9.90
2019-05-20T11:04:46.428Z,10.20
2019-05-20T11:07:33.329Z,10.17
2019-05-20T11:10:20.146Z,10.83
2019-05-20T11:13:06.878Z,10.37
2019-05-20T11:15:53.898Z,10.40
2019-05-20T11:18:43.112Z,10.60
2019-05-20T11:21:31.968Z,10.20
2019-05-20T11:24:18.947Z,10.20
2019-05-20T11:27:05.817Z,9.90
2019-05-20T11:29:54.137Z,10.53
2019-05-20T11:32:41.062Z,10.40
2019-05-20T11:35:27.714Z,10.43
2019-05-20T11:38:14.681Z,10.17
2019-05-20T11:44:11.981Z,10.50
2019-05-20T11:46:59.045Z,10.20
2019-05-20T11:49:45.738Z,10.57
2019-05-20T11:52:32.860Z,10.20
2019-05-20T11:55:19.854Z,10.57
2019-05-20T11:58:15.770Z,10.30
2019-05-20T12:00:55.498Z,10.20
2019-05-20T12:03:42.639Z,11.17
2019-05-20T12:06:29.530Z,10.80
2019-05-20T12:09:17.420Z,10.63
2019-05-20T12:12:04.437Z,10.17
2019-05-20T12:14:51.597Z,9.60
2019-05-20T12:22:02.596Z,10.07
2019-05-20T15:46:30.350Z,7.90
2019-05-20T15:49:17.059Z,8.10
2019-05-20T15:52:03.494Z,7.90
2019-05-20T15:54:49.937Z,8.00
2019-05-20T15:57:36.598Z,8.30
2019-05-20T16:00:32.064Z,7.77
2019-05-20T16:03:21.187Z,7.97
2019-05-20T16:06:09.986Z,8.30
2019-05-20T16:09:08.104Z,7.83
2019-05-20T16:12:04.206Z,8.07
2019-05-20T16:14:51.765Z,8.20
2019-05-20T16:17:42.714Z,8.00
2019-05-20T16:24:35.787Z,8.17
2019-05-20T16:27:57.547Z,7.90
2019-05-20T16:30:29.131Z,8.00
2019-05-20T16:33:38.663Z,7.90
2019-05-20T16:36:43.219Z,7.70
2019-05-20T16:44:20.538Z,7.80
2019-05-20T16:52:07.127Z,7.80
2019-05-20T19:19:00.047Z,8.10
2019-05-20T19:21:47.102Z,8.20
2019-05-20T19:24:34.053Z,8.10
2019-05-20T19:27:21.024Z,8.07
2019-05-20T19:30:08.439Z,8.20
2019-05-20T19:32:55.384Z,8.30
2019-05-20T19:35:42.145Z,8.30
2019-05-20T19:38:32.851Z,8.10
2019-05-20T19:41:17.662Z,8.33
2019-05-20T19:44:04.378Z,8.40
2019-05-20T19:46:50.780Z,8.00
2019-05-20T19:49:37.694Z,8.90
2019-05-20T19:52:24.473Z,9.30
2019-05-20T19:55:11.271Z,9.77
2019-05-20T19:57:58.266Z,9.53
2019-05-20T20:00:44.972Z,10.23
2019-05-20T20:03:31.836Z,9.87
2019-05-20T20:06:18.765Z,9.67
2019-05-20T20:09:06.147Z,9.20
2019-05-20T20:11:53.071Z,9.03
2019-05-20T20:14:39.556Z,9.30
2019-05-20T20:17:22.179Z,9.63
2019-05-20T20:20:08.651Z,9.30
2019-05-20T20:22:55.822Z,9.00
2019-05-20T20:25:42.652Z,9.50
2019-05-20T20:28:29.635Z,9.50
2019-05-20T20:31:16.716Z,9.30
2019-05-20T20:34:04.706Z,10.63
2019-05-20T20:36:51.462Z,9.90
2019-05-20T20:39:38.352Z,11.03
2019-05-20T20:42:25.337Z,10.27
2019-05-20T20:45:12.405Z,9.23
2019-05-20T20:47:59.380Z,8.90
2019-05-20T20:50:46.430Z,9.07
2019-05-20T20:53:33.378Z,8.80
2019-05-20T20:56:25.096Z,8.83
2019-05-20T20:59:09.595Z,8.80
2019-05-20T21:01:59.129Z,8.97
2019-05-20T21:04:45.333Z,8.67
2019-05-20T21:07:32.565Z,8.50
2019-05-20T21:10:19.448Z,8.80
2019-05-20T21:13:06.339Z,8.60
2019-05-20T21:15:53.274Z,8.83
2019-05-20T21:18:40.327Z,9.00
2019-05-20T21:21:27.150Z,8.50
2019-05-20T21:24:13.961Z,8.73
2019-05-20T21:27:00.983Z,8.73
2019-05-20T21:29:47.942Z,8.70
2019-05-20T21:32:35.126Z,9.00
2019-05-20T21:35:22.447Z,8.87
2019-05-20T21:38:08.975Z,8.60
2019-05-20T21:40:55.852Z,8.40
2019-05-20T21:43:44.996Z,8.70
2019-05-20T21:46:31.887Z,8.70
2019-05-20T21:49:18.675Z,8.60
2019-05-20T21:52:05.755Z,8.73
2019-05-20T21:54:56.017Z,9.10
2019-05-20T21:57:45.049Z,8.80
2019-05-20T22:00:42.058Z,8.50
2019-05-20T22:03:31.563Z,8.87
2019-05-20T22:06:18.783Z,8.80
2019-05-20T22:09:06.819Z,8.90
2019-05-20T22:11:53.682Z,9.00
2019-05-20T22:14:40.642Z,8.83
2019-05-20T22:17:27.991Z,8.70
2019-05-20T22:20:17.248Z,8.90
2019-05-20T22:23:25.681Z,8.90
2019-05-20T22:26:12.209Z,8.70
2019-05-20T22:28:59.243Z,9.00
2019-05-20T22:31:46.289Z,8.90
2019-05-20T22:34:33.102Z,8.80
2019-05-20T22:37:20.260Z,8.90
2019-05-20T22:40:07.621Z,8.50
2019-05-20T22:42:55.476Z,8.80
2019-05-20T22:45:42.138Z,8.70
2019-05-20T22:48:29.127Z,8.70
2019-05-20T22:51:16.376Z,8.90
2019-05-20T22:54:03.360Z,8.90
2019-05-20T22:56:50.444Z,8.80
2019-05-20T22:59:37.294Z,8.63
2019-05-20T23:02:24.180Z,8.67
2019-05-20T23:05:11.227Z,8.80
2019-05-20T23:07:58.898Z,8.60
2019-05-20T23:10:45.710Z,8.90
2019-05-20T23:13:32.232Z,8.80
2019-05-20T23:16:19.101Z,8.40
2019-05-20T23:19:06.002Z,8.63
2019-05-20T23:21:52.914Z,8.60
2019-05-20T23:24:39.976Z,8.67
2019-05-20T23:27:26.802Z,8.50
2019-05-20T23:30:13.732Z,9.00
2019-05-20T23:33:00.372Z,8.83
2019-05-20T23:35:47.291Z,8.70
2019-05-20T23:38:34.163Z,8.93
2019-05-20T23:41:21.186Z,8.70
2019-05-20T23:44:08.036Z,8.80
2019-05-20T23:46:55.096Z,8.50
2019-05-20T23:49:42.187Z,8.70
2019-05-20T23:52:29.047Z,8.40
2019-05-20T23:55:17.308Z,8.60
2019-05-20T23:58:03.890Z,8.80
